sensor_id;sensor_type;location;lat;lon;timestamp;pressure;altitude;pressure_sealevel;temperature
51149;BMP280;37210;50.058;8.688;2023-07-31T00:01:33;100014.81;;;20.46
51149;BMP280;37210;50.058;8.688;2023-07-31T00:04:01;100009.03;;;20.57
51149;BMP280;37210;50.058;8.688;2023-07-31T00:06:28;100026.41;;;20.45
51149;BMP280;37210;50.058;8.688;2023-07-31T00:08:56;100019.94;;;20.51
51149;BMP280;37210;50.058;8.688;2023-07-31T00:11:25;100023.03;;;20.42
51149;BMP280;37210;50.058;8.688;2023-07-31T00:13:52;99910.78;;;19.76
51149;BMP280;37210;50.058;8.688;2023-07-31T00:16:20;99999.31;;;20.37
51149;BMP280;37210;50.058;8.688;2023-07-31T00:18:48;99991.47;;;20.34
51149;BMP280;37210;50.058;8.688;2023-07-31T00:21:15;100000.19;;;20.16
51149;BMP280;37210;50.058;8.688;2023-07-31T00:23:42;100005.69;;;20.33
51149;BMP280;37210;50.058;8.688;2023-07-31T00:26:10;100010.06;;;20.34
51149;BMP280;37210;50.058;8.688;2023-07-31T00:28:38;99972.88;;;19.92
51149;BMP280;37210;50.058;8.688;2023-07-31T00:31:06;99957.91;;;20.12
51149;BMP280;37210;50.058;8.688;2023-07-31T00:33:35;99982.31;;;20.41
51149;BMP280;37210;50.058;8.688;2023-07-31T00:36:03;100001.03;;;20.38
51149;BMP280;37210;50.058;8.688;2023-07-31T00:38:31;99968.97;;;20.23
51149;BMP280;37210;50.058;8.688;2023-07-31T00:40:59;99977.50;;;20.49
51149;BMP280;37210;50.058;8.688;2023-07-31T00:43:26;99974.88;;;20.29
51149;BMP280;37210;50.058;8.688;2023-07-31T00:45:55;99973.19;;;20.47
51149;BMP280;37210;50.058;8.688;2023-07-31T00:48:23;99961.91;;;20.22
51149;BMP280;37210;50.058;8.688;2023-07-31T00:50:50;99965.28;;;20.45
51149;BMP280;37210;50.058;8.688;2023-07-31T00:53:18;99939.31;;;20.12
51149;BMP280;37210;50.058;8.688;2023-07-31T00:55:46;99940.88;;;20.37
51149;BMP280;37210;50.058;8.688;2023-07-31T00:58:13;99942.34;;;20.03
51149;BMP280;37210;50.058;8.688;2023-07-31T01:00:41;99979.16;;;20.12
51149;BMP280;37210;50.058;8.688;2023-07-31T01:03:10;99975.00;;;20.26
51149;BMP280;37210;50.058;8.688;2023-07-31T01:05:43;99983.09;;;20.43
51149;BMP280;37210;50.058;8.688;2023-07-31T01:08:28;99958.34;;;20.23
51149;BMP280;37210;50.058;8.688;2023-07-31T01:11:07;99947.78;;;20.21
51149;BMP280;37210;50.058;8.688;2023-07-31T01:13:42;99977.78;;;20.43
51149;BMP280;37210;50.058;8.688;2023-07-31T01:16:11;99929.41;;;20.15
51149;BMP280;37210;50.058;8.688;2023-07-31T01:18:40;99963.38;;;20.09
51149;BMP280;37210;50.058;8.688;2023-07-31T01:21:19;99954.34;;;20.13
51149;BMP280;37210;50.058;8.688;2023-07-31T01:24:30;99967.72;;;20.10
51149;BMP280;37210;50.058;8.688;2023-07-31T01:27:12;99949.75;;;20.16
51149;BMP280;37210;50.058;8.688;2023-07-31T01:29:47;99951.78;;;20.10
51149;BMP280;37210;50.058;8.688;2023-07-31T01:32:21;99939.25;;;19.93
51149;BMP280;37210;50.058;8.688;2023-07-31T01:34:49;99971.97;;;20.14
51149;BMP280;37210;50.058;8.688;2023-07-31T01:37:18;99906.19;;;19.80
51149;BMP280;37210;50.058;8.688;2023-07-31T01:39:45;99938.91;;;20.01
51149;BMP280;37210;50.058;8.688;2023-07-31T01:42:14;99947.75;;;20.01
51149;BMP280;37210;50.058;8.688;2023-07-31T01:44:43;99947.56;;;20.26
51149;BMP280;37210;50.058;8.688;2023-07-31T01:47:10;99896.81;;;19.71
51149;BMP280;37210;50.058;8.688;2023-07-31T01:49:38;99941.41;;;20.25
51149;BMP280;37210;50.058;8.688;2023-07-31T01:52:06;99917.63;;;20.02
51149;BMP280;37210;50.058;8.688;2023-07-31T01:54:33;99915.25;;;19.96
51149;BMP280;37210;50.058;8.688;2023-07-31T01:57:03;99930.84;;;20.24
51149;BMP280;37210;50.058;8.688;2023-07-31T01:59:32;99916.66;;;20.25
51149;BMP280;37210;50.058;8.688;2023-07-31T02:01:59;99900.72;;;20.05
51149;BMP280;37210;50.058;8.688;2023-07-31T02:04:26;99929.13;;;20.23
51149;BMP280;37210;50.058;8.688;2023-07-31T02:06:54;99921.44;;;20.15
51149;BMP280;37210;50.058;8.688;2023-07-31T02:09:21;99916.09;;;20.17
51149;BMP280;37210;50.058;8.688;2023-07-31T02:11:49;99902.66;;;20.21
51149;BMP280;37210;50.058;8.688;2023-07-31T02:14:16;99902.41;;;20.06
51149;BMP280;37210;50.058;8.688;2023-07-31T02:16:45;99930.44;;;20.13
51149;BMP280;37210;50.058;8.688;2023-07-31T02:19:12;99884.91;;;20.02
51149;BMP280;37210;50.058;8.688;2023-07-31T02:21:40;99918.78;;;20.15
51149;BMP280;37210;50.058;8.688;2023-07-31T02:24:07;99890.66;;;20.11
51149;BMP280;37210;50.058;8.688;2023-07-31T02:26:34;99920.72;;;20.32
51149;BMP280;37210;50.058;8.688;2023-07-31T02:29:02;99915.06;;;20.21
51149;BMP280;37210;50.058;8.688;2023-07-31T02:31:30;99906.94;;;20.04
51149;BMP280;37210;50.058;8.688;2023-07-31T02:33:58;99886.09;;;20.15
51149;BMP280;37210;50.058;8.688;2023-07-31T02:36:26;99893.00;;;20.19
51149;BMP280;37210;50.058;8.688;2023-07-31T02:38:53;99901.69;;;20.22
51149;BMP280;37210;50.058;8.688;2023-07-31T02:41:21;99916.28;;;20.32
51149;BMP280;37210;50.058;8.688;2023-07-31T02:43:48;99923.38;;;20.32
51149;BMP280;37210;50.058;8.688;2023-07-31T02:46:16;99907.00;;;20.22
51149;BMP280;37210;50.058;8.688;2023-07-31T02:48:43;99913.16;;;20.61
51149;BMP280;37210;50.058;8.688;2023-07-31T02:51:12;99925.81;;;20.56
51149;BMP280;37210;50.058;8.688;2023-07-31T02:53:40;99908.19;;;20.35
51149;BMP280;37210;50.058;8.688;2023-07-31T02:56:07;99901.94;;;20.16
51149;BMP280;37210;50.058;8.688;2023-07-31T02:58:35;99926.25;;;20.66
51149;BMP280;37210;50.058;8.688;2023-07-31T03:01:02;99931.78;;;20.61
51149;BMP280;37210;50.058;8.688;2023-07-31T03:03:29;99899.44;;;20.33
51149;BMP280;37210;50.058;8.688;2023-07-31T03:05:57;99936.38;;;20.58
51149;BMP280;37210;50.058;8.688;2023-07-31T03:08:25;99932.06;;;20.55
51149;BMP280;37210;50.058;8.688;2023-07-31T03:10:53;99913.03;;;20.46
51149;BMP280;37210;50.058;8.688;2023-07-31T03:13:24;99859.84;;;20.07
51149;BMP280;37210;50.058;8.688;2023-07-31T03:15:54;99923.19;;;20.36
51149;BMP280;37210;50.058;8.688;2023-07-31T03:18:22;99930.16;;;20.19
51149;BMP280;37210;50.058;8.688;2023-07-31T03:20:49;99822.38;;;19.34
51149;BMP280;37210;50.058;8.688;2023-07-31T03:23:17;99930.91;;;20.02
51149;BMP280;37210;50.058;8.688;2023-07-31T03:25:56;99915.16;;;19.98
51149;BMP280;37210;50.058;8.688;2023-07-31T03:28:28;99876.88;;;19.83
51149;BMP280;37210;50.058;8.688;2023-07-31T03:30:55;99925.91;;;20.15
51149;BMP280;37210;50.058;8.688;2023-07-31T03:33:22;99930.50;;;19.91
51149;BMP280;37210;50.058;8.688;2023-07-31T03:35:50;99917.28;;;19.89
51149;BMP280;37210;50.058;8.688;2023-07-31T03:38:18;99878.47;;;19.67
51149;BMP280;37210;50.058;8.688;2023-07-31T03:40:46;99922.13;;;20.00
51149;BMP280;37210;50.058;8.688;2023-07-31T03:43:15;99897.91;;;19.87
51149;BMP280;37210;50.058;8.688;2023-07-31T03:45:42;99895.69;;;19.57
51149;BMP280;37210;50.058;8.688;2023-07-31T03:48:11;99887.59;;;19.60
51149;BMP280;37210;50.058;8.688;2023-07-31T03:50:38;99914.56;;;19.91
51149;BMP280;37210;50.058;8.688;2023-07-31T03:53:06;99875.31;;;19.57
51149;BMP280;37210;50.058;8.688;2023-07-31T03:55:33;99888.81;;;19.73
51149;BMP280;37210;50.058;8.688;2023-07-31T03:58:01;99872.41;;;19.63
51149;BMP280;37210;50.058;8.688;2023-07-31T04:00:29;99928.91;;;19.87
51149;BMP280;37210;50.058;8.688;2023-07-31T04:02:57;99926.22;;;20.07
51149;BMP280;37210;50.058;8.688;2023-07-31T04:05:24;99920.75;;;19.91
51149;BMP280;37210;50.058;8.688;2023-07-31T04:07:52;99880.09;;;19.69
51149;BMP280;37210;50.058;8.688;2023-07-31T04:10:19;99866.16;;;19.44
51149;BMP280;37210;50.058;8.688;2023-07-31T04:12:46;99919.34;;;19.83
51149;BMP280;37210;50.058;8.688;2023-07-31T04:15:14;99896.47;;;19.59
51149;BMP280;37210;50.058;8.688;2023-07-31T04:17:43;99885.88;;;19.59
51149;BMP280;37210;50.058;8.688;2023-07-31T04:20:10;99913.75;;;19.69
51149;BMP280;37210;50.058;8.688;2023-07-31T04:22:38;99915.47;;;19.70
51149;BMP280;37210;50.058;8.688;2023-07-31T04:25:06;99904.22;;;19.43
51149;BMP280;37210;50.058;8.688;2023-07-31T04:27:34;99905.09;;;19.85
51149;BMP280;37210;50.058;8.688;2023-07-31T04:30:01;99880.84;;;19.73
51149;BMP280;37210;50.058;8.688;2023-07-31T04:32:29;99867.44;;;19.36
51149;BMP280;37210;50.058;8.688;2023-07-31T04:34:58;99882.31;;;19.60
51149;BMP280;37210;50.058;8.688;2023-07-31T04:37:25;99893.19;;;19.54
51149;BMP280;37210;50.058;8.688;2023-07-31T04:39:53;99882.81;;;19.48
51149;BMP280;37210;50.058;8.688;2023-07-31T04:42:20;99890.88;;;19.66
51149;BMP280;37210;50.058;8.688;2023-07-31T04:44:47;99884.50;;;19.90
51149;BMP280;37210;50.058;8.688;2023-07-31T04:47:15;99870.84;;;19.79
51149;BMP280;37210;50.058;8.688;2023-07-31T04:49:42;99882.44;;;19.77
51149;BMP280;37210;50.058;8.688;2023-07-31T04:52:11;99863.34;;;19.69
51149;BMP280;37210;50.058;8.688;2023-07-31T04:54:38;99883.38;;;19.76
51149;BMP280;37210;50.058;8.688;2023-07-31T04:57:06;99872.56;;;19.60
51149;BMP280;37210;50.058;8.688;2023-07-31T04:59:33;99832.25;;;19.31
51149;BMP280;37210;50.058;8.688;2023-07-31T05:02:01;99839.06;;;19.38
51149;BMP280;37210;50.058;8.688;2023-07-31T05:04:28;99878.84;;;19.58
51149;BMP280;37210;50.058;8.688;2023-07-31T05:07:08;99883.38;;;19.76
51149;BMP280;37210;50.058;8.688;2023-07-31T05:09:37;99877.44;;;19.69
51149;BMP280;37210;50.058;8.688;2023-07-31T05:12:05;99874.34;;;19.80
51149;BMP280;37210;50.058;8.688;2023-07-31T05:14:33;99875.47;;;19.94
51149;BMP280;37210;50.058;8.688;2023-07-31T05:17:01;99850.34;;;19.63
51149;BMP280;37210;50.058;8.688;2023-07-31T05:19:28;99881.47;;;19.79
51149;BMP280;37210;50.058;8.688;2023-07-31T05:21:56;99875.50;;;20.13
51149;BMP280;37210;50.058;8.688;2023-07-31T05:24:23;99879.06;;;19.93
51149;BMP280;37210;50.058;8.688;2023-07-31T05:26:52;99878.53;;;19.85
51149;BMP280;37210;50.058;8.688;2023-07-31T05:29:19;99831.81;;;19.61
51149;BMP280;37210;50.058;8.688;2023-07-31T05:31:47;99881.78;;;19.92
51149;BMP280;37210;50.058;8.688;2023-07-31T05:34:14;99877.53;;;19.88
51149;BMP280;37210;50.058;8.688;2023-07-31T05:36:42;99878.13;;;19.94
51149;BMP280;37210;50.058;8.688;2023-07-31T05:39:09;99877.38;;;20.11
51149;BMP280;37210;50.058;8.688;2023-07-31T05:41:37;99876.59;;;19.89
51149;BMP280;37210;50.058;8.688;2023-07-31T05:44:06;99871.09;;;19.93
51149;BMP280;37210;50.058;8.688;2023-07-31T05:46:33;99838.31;;;19.74
51149;BMP280;37210;50.058;8.688;2023-07-31T05:49:01;99878.00;;;19.98
51149;BMP280;37210;50.058;8.688;2023-07-31T05:51:28;99866.03;;;20.08
51149;BMP280;37210;50.058;8.688;2023-07-31T05:53:56;99856.59;;;20.01
51149;BMP280;37210;50.058;8.688;2023-07-31T05:56:23;99827.78;;;20.12
51149;BMP280;37210;50.058;8.688;2023-07-31T05:58:50;99860.66;;;20.09
51149;BMP280;37210;50.058;8.688;2023-07-31T06:01:19;99862.44;;;20.29
51149;BMP280;37210;50.058;8.688;2023-07-31T06:03:47;99851.25;;;20.41
51149;BMP280;37210;50.058;8.688;2023-07-31T06:06:14;99866.50;;;20.37
51149;BMP280;37210;50.058;8.688;2023-07-31T06:08:42;99863.97;;;20.34
51149;BMP280;37210;50.058;8.688;2023-07-31T06:11:09;99865.25;;;20.44
51149;BMP280;37210;50.058;8.688;2023-07-31T06:13:36;99861.41;;;20.51
51149;BMP280;37210;50.058;8.688;2023-07-31T06:16:04;99844.25;;;20.40
51149;BMP280;37210;50.058;8.688;2023-07-31T06:18:33;99833.75;;;20.37
51149;BMP280;37210;50.058;8.688;2023-07-31T06:21:00;99848.25;;;20.67
51149;BMP280;37210;50.058;8.688;2023-07-31T06:23:28;99809.03;;;20.53
51149;BMP280;37210;50.058;8.688;2023-07-31T06:25:55;99851.69;;;20.88
51149;BMP280;37210;50.058;8.688;2023-07-31T06:28:27;99859.84;;;21.20
51149;BMP280;37210;50.058;8.688;2023-07-31T06:30:56;99862.72;;;21.16
51149;BMP280;37210;50.058;8.688;2023-07-31T06:33:23;99859.66;;;21.42
51149;BMP280;37210;50.058;8.688;2023-07-31T06:35:52;99862.63;;;21.53
51149;BMP280;37210;50.058;8.688;2023-07-31T06:38:22;99858.16;;;21.19
51149;BMP280;37210;50.058;8.688;2023-07-31T06:40:51;99870.75;;;21.33
51149;BMP280;37210;50.058;8.688;2023-07-31T06:43:18;99858.03;;;21.57
51149;BMP280;37210;50.058;8.688;2023-07-31T06:45:46;99857.56;;;21.83
51149;BMP280;37210;50.058;8.688;2023-07-31T06:48:16;99856.84;;;21.96
51149;BMP280;37210;50.058;8.688;2023-07-31T06:50:43;99856.28;;;22.40
51149;BMP280;37210;50.058;8.688;2023-07-31T06:53:12;99856.53;;;22.35
51149;BMP280;37210;50.058;8.688;2023-07-31T06:55:39;99853.41;;;22.27
51149;BMP280;37210;50.058;8.688;2023-07-31T06:58:07;99870.56;;;21.89
51149;BMP280;37210;50.058;8.688;2023-07-31T07:00:34;99872.19;;;22.08
51149;BMP280;37210;50.058;8.688;2023-07-31T07:03:01;99863.41;;;22.06
51149;BMP280;37210;50.058;8.688;2023-07-31T07:05:29;99864.88;;;22.12
51149;BMP280;37210;50.058;8.688;2023-07-31T07:07:56;99857.19;;;21.90
51149;BMP280;37210;50.058;8.688;2023-07-31T07:10:25;99854.03;;;21.82
51149;BMP280;37210;50.058;8.688;2023-07-31T07:12:52;99860.13;;;22.01
51149;BMP280;37210;50.058;8.688;2023-07-31T07:15:21;99853.47;;;21.93
51149;BMP280;37210;50.058;8.688;2023-07-31T07:17:48;99849.47;;;21.84
51149;BMP280;37210;50.058;8.688;2023-07-31T07:20:16;99846.56;;;21.72
51149;BMP280;37210;50.058;8.688;2023-07-31T07:22:45;99849.47;;;22.01
51149;BMP280;37210;50.058;8.688;2023-07-31T07:25:12;99844.94;;;21.86
51149;BMP280;37210;50.058;8.688;2023-07-31T07:27:41;99802.44;;;21.85
51149;BMP280;37210;50.058;8.688;2023-07-31T07:30:09;99838.69;;;22.20
51149;BMP280;37210;50.058;8.688;2023-07-31T07:32:37;99834.91;;;22.24
51149;BMP280;37210;50.058;8.688;2023-07-31T07:35:05;99807.06;;;22.78
51149;BMP280;37210;50.058;8.688;2023-07-31T07:37:33;99809.84;;;23.51
51149;BMP280;37210;50.058;8.688;2023-07-31T07:40:00;99806.88;;;23.26
51149;BMP280;37210;50.058;8.688;2023-07-31T07:42:28;99809.19;;;23.48
51149;BMP280;37210;50.058;8.688;2023-07-31T07:44:57;99807.19;;;23.51
51149;BMP280;37210;50.058;8.688;2023-07-31T07:47:24;99808.44;;;23.46
51149;BMP280;37210;50.058;8.688;2023-07-31T07:49:52;99798.88;;;23.26
51149;BMP280;37210;50.058;8.688;2023-07-31T07:52:19;99818.06;;;23.48
51149;BMP280;37210;50.058;8.688;2023-07-31T07:54:46;99817.66;;;23.40
51149;BMP280;37210;50.058;8.688;2023-07-31T07:57:14;99809.47;;;23.43
51149;BMP280;37210;50.058;8.688;2023-07-31T07:59:41;99805.84;;;23.44
51149;BMP280;37210;50.058;8.688;2023-07-31T08:02:10;99806.78;;;23.87
51149;BMP280;37210;50.058;8.688;2023-07-31T08:04:37;99797.47;;;24.22
51149;BMP280;37210;50.058;8.688;2023-07-31T08:07:05;99788.53;;;24.09
51149;BMP280;37210;50.058;8.688;2023-07-31T08:09:32;99803.34;;;24.70
51149;BMP280;37210;50.058;8.688;2023-07-31T08:11:59;99803.56;;;24.52
51149;BMP280;37210;50.058;8.688;2023-07-31T08:14:29;99797.19;;;24.27
51149;BMP280;37210;50.058;8.688;2023-07-31T08:16:56;99800.91;;;24.10
51149;BMP280;37210;50.058;8.688;2023-07-31T08:19:25;99794.59;;;23.53
51149;BMP280;37210;50.058;8.688;2023-07-31T08:21:52;99799.03;;;23.68
51149;BMP280;37210;50.058;8.688;2023-07-31T08:24:20;99779.59;;;23.37
51149;BMP280;37210;50.058;8.688;2023-07-31T08:26:47;99781.28;;;23.24
51149;BMP280;37210;50.058;8.688;2023-07-31T08:29:15;99787.00;;;23.02
51149;BMP280;37210;50.058;8.688;2023-07-31T08:31:42;99782.41;;;23.20
51149;BMP280;37210;50.058;8.688;2023-07-31T08:34:09;99791.97;;;23.08
51149;BMP280;37210;50.058;8.688;2023-07-31T08:36:38;99778.94;;;23.33
51149;BMP280;37210;50.058;8.688;2023-07-31T08:39:05;99769.38;;;23.29
51149;BMP280;37210;50.058;8.688;2023-07-31T08:41:37;99768.09;;;23.36
51149;BMP280;37210;50.058;8.688;2023-07-31T08:44:05;99767.75;;;23.70
51149;BMP280;37210;50.058;8.688;2023-07-31T08:46:34;99776.78;;;23.54
51149;BMP280;37210;50.058;8.688;2023-07-31T08:49:04;99774.53;;;23.32
51149;BMP280;37210;50.058;8.688;2023-07-31T08:51:33;99772.41;;;23.53
51149;BMP280;37210;50.058;8.688;2023-07-31T08:54:03;99771.44;;;23.40
51149;BMP280;37210;50.058;8.688;2023-07-31T08:56:31;99781.09;;;23.56
51149;BMP280;37210;50.058;8.688;2023-07-31T08:59:02;99776.53;;;23.72
51149;BMP280;37210;50.058;8.688;2023-07-31T09:01:31;99771.94;;;23.60
51149;BMP280;37210;50.058;8.688;2023-07-31T09:04:06;99774.19;;;23.38
51149;BMP280;37210;50.058;8.688;2023-07-31T09:06:37;99777.88;;;23.79
51149;BMP280;37210;50.058;8.688;2023-07-31T09:09:07;99765.69;;;23.75
51149;BMP280;37210;50.058;8.688;2023-07-31T09:11:35;99769.69;;;23.39
51149;BMP280;37210;50.058;8.688;2023-07-31T09:14:02;99766.06;;;23.69
51149;BMP280;37210;50.058;8.688;2023-07-31T09:16:34;99775.50;;;23.89
51149;BMP280;37210;50.058;8.688;2023-07-31T09:19:02;99772.16;;;23.71
51149;BMP280;37210;50.058;8.688;2023-07-31T09:21:31;99764.31;;;23.82
51149;BMP280;37210;50.058;8.688;2023-07-31T09:23:58;99765.78;;;23.88
51149;BMP280;37210;50.058;8.688;2023-07-31T09:26:31;99763.00;;;23.90
51149;BMP280;37210;50.058;8.688;2023-07-31T09:29:00;99763.00;;;24.18
51149;BMP280;37210;50.058;8.688;2023-07-31T09:31:38;99753.84;;;23.94
51149;BMP280;37210;50.058;8.688;2023-07-31T09:34:07;99756.53;;;23.79
51149;BMP280;37210;50.058;8.688;2023-07-31T09:36:41;99727.34;;;24.05
51149;BMP280;37210;50.058;8.688;2023-07-31T09:39:09;99756.63;;;24.75
51149;BMP280;37210;50.058;8.688;2023-07-31T09:41:41;99751.00;;;25.19
51149;BMP280;37210;50.058;8.688;2023-07-31T09:44:10;99738.59;;;25.30
51149;BMP280;37210;50.058;8.688;2023-07-31T09:46:38;99731.50;;;25.17
51149;BMP280;37210;50.058;8.688;2023-07-31T09:49:07;99722.25;;;24.69
51149;BMP280;37210;50.058;8.688;2023-07-31T09:51:36;99729.94;;;24.88
51149;BMP280;37210;50.058;8.688;2023-07-31T09:54:11;99732.72;;;24.86
51149;BMP280;37210;50.058;8.688;2023-07-31T09:56:43;99731.75;;;24.87
51149;BMP280;37210;50.058;8.688;2023-07-31T09:59:12;99735.91;;;25.30
51149;BMP280;37210;50.058;8.688;2023-07-31T10:01:43;99717.16;;;25.18
51149;BMP280;37210;50.058;8.688;2023-07-31T10:04:13;99709.69;;;25.35
51149;BMP280;37210;50.058;8.688;2023-07-31T10:06:43;99698.88;;;24.85
51149;BMP280;37210;50.058;8.688;2023-07-31T10:09:15;99697.63;;;25.03
51149;BMP280;37210;50.058;8.688;2023-07-31T10:11:48;99684.69;;;24.97
51149;BMP280;37210;50.058;8.688;2023-07-31T10:14:23;99682.59;;;25.15
51149;BMP280;37210;50.058;8.688;2023-07-31T10:16:52;99694.25;;;25.14
51149;BMP280;37210;50.058;8.688;2023-07-31T10:19:21;99689.75;;;25.27
51149;BMP280;37210;50.058;8.688;2023-07-31T10:21:49;99693.50;;;25.24
51149;BMP280;37210;50.058;8.688;2023-07-31T10:24:17;99696.16;;;25.12
51149;BMP280;37210;50.058;8.688;2023-07-31T10:26:47;99688.06;;;25.26
51149;BMP280;37210;50.058;8.688;2023-07-31T10:29:16;99676.31;;;25.66
51149;BMP280;37210;50.058;8.688;2023-07-31T10:31:46;99674.38;;;25.56
51149;BMP280;37210;50.058;8.688;2023-07-31T10:34:15;99678.16;;;25.53
51149;BMP280;37210;50.058;8.688;2023-07-31T10:36:43;99678.66;;;25.46
51149;BMP280;37210;50.058;8.688;2023-07-31T10:39:34;99676.09;;;25.69
51149;BMP280;37210;50.058;8.688;2023-07-31T10:42:11;99669.66;;;25.34
51149;BMP280;37210;50.058;8.688;2023-07-31T10:44:43;99664.94;;;25.37
51149;BMP280;37210;50.058;8.688;2023-07-31T10:47:14;99675.03;;;25.59
51149;BMP280;37210;50.058;8.688;2023-07-31T10:49:45;99646.78;;;25.43
51149;BMP280;37210;50.058;8.688;2023-07-31T10:52:19;99665.56;;;25.79
51149;BMP280;37210;50.058;8.688;2023-07-31T10:54:49;99650.81;;;25.73
51149;BMP280;37210;50.058;8.688;2023-07-31T10:57:21;99653.47;;;25.86
51149;BMP280;37210;50.058;8.688;2023-07-31T10:59:51;99651.44;;;25.77
51149;BMP280;37210;50.058;8.688;2023-07-31T11:02:25;99654.41;;;25.85
51149;BMP280;37210;50.058;8.688;2023-07-31T11:05:11;99645.03;;;25.67
51149;BMP280;37210;50.058;8.688;2023-07-31T11:07:48;99641.00;;;26.10
51149;BMP280;37210;50.058;8.688;2023-07-31T11:10:17;99650.00;;;26.09
51149;BMP280;37210;50.058;8.688;2023-07-31T11:12:46;99652.44;;;25.99
51149;BMP280;37210;50.058;8.688;2023-07-31T11:15:13;99647.16;;;26.23
51149;BMP280;37210;50.058;8.688;2023-07-31T11:17:41;99649.56;;;26.15
51149;BMP280;37210;50.058;8.688;2023-07-31T11:20:09;99652.72;;;26.56
51149;BMP280;37210;50.058;8.688;2023-07-31T11:22:37;99636.75;;;26.78
51149;BMP280;37210;50.058;8.688;2023-07-31T11:25:04;99648.91;;;26.24
51149;BMP280;37210;50.058;8.688;2023-07-31T11:27:38;99626.69;;;26.46
51149;BMP280;37210;50.058;8.688;2023-07-31T11:30:08;99633.06;;;26.56
51149;BMP280;37210;50.058;8.688;2023-07-31T11:32:37;99629.78;;;26.52
51149;BMP280;37210;50.058;8.688;2023-07-31T11:35:04;99629.50;;;26.44
51149;BMP280;37210;50.058;8.688;2023-07-31T11:37:40;99590.75;;;26.72
51149;BMP280;37210;50.058;8.688;2023-07-31T11:40:10;99622.19;;;26.46
51149;BMP280;37210;50.058;8.688;2023-07-31T11:42:38;99620.19;;;26.61
51149;BMP280;37210;50.058;8.688;2023-07-31T11:45:06;99629.59;;;26.19
51149;BMP280;37210;50.058;8.688;2023-07-31T11:47:36;99628.28;;;25.88
51149;BMP280;37210;50.058;8.688;2023-07-31T11:50:06;99591.00;;;25.73
51149;BMP280;37210;50.058;8.688;2023-07-31T11:52:40;99612.91;;;26.16
51149;BMP280;37210;50.058;8.688;2023-07-31T11:55:11;99622.22;;;26.10
51149;BMP280;37210;50.058;8.688;2023-07-31T11:57:41;99606.22;;;26.21
51149;BMP280;37210;50.058;8.688;2023-07-31T12:00:14;99606.66;;;26.62
51149;BMP280;37210;50.058;8.688;2023-07-31T12:02:42;99598.56;;;26.75
51149;BMP280;37210;50.058;8.688;2023-07-31T12:05:11;99585.78;;;26.89
51149;BMP280;37210;50.058;8.688;2023-07-31T12:07:43;99592.44;;;27.19
51149;BMP280;37210;50.058;8.688;2023-07-31T12:10:22;99593.50;;;27.16
51149;BMP280;37210;50.058;8.688;2023-07-31T12:13:02;99591.75;;;27.50
51149;BMP280;37210;50.058;8.688;2023-07-31T12:15:40;99585.09;;;27.21
51149;BMP280;37210;50.058;8.688;2023-07-31T12:18:10;99566.81;;;27.26
51149;BMP280;37210;50.058;8.688;2023-07-31T12:20:42;99596.53;;;26.89
51149;BMP280;37210;50.058;8.688;2023-07-31T12:23:14;99586.88;;;27.44
51149;BMP280;37210;50.058;8.688;2023-07-31T12:25:43;99569.75;;;27.12
51149;BMP280;37210;50.058;8.688;2023-07-31T12:28:11;99585.84;;;27.12
51149;BMP280;37210;50.058;8.688;2023-07-31T12:30:40;99578.50;;;27.03
51149;BMP280;37210;50.058;8.688;2023-07-31T12:33:13;99553.63;;;27.12
51149;BMP280;37210;50.058;8.688;2023-07-31T12:35:43;99586.69;;;27.01
51149;BMP280;37210;50.058;8.688;2023-07-31T12:38:12;99576.78;;;26.90
51149;BMP280;37210;50.058;8.688;2023-07-31T12:40:41;99579.91;;;26.73
51149;BMP280;37210;50.058;8.688;2023-07-31T12:43:09;99579.72;;;26.64
51149;BMP280;37210;50.058;8.688;2023-07-31T12:45:36;99575.19;;;26.53
51149;BMP280;37210;50.058;8.688;2023-07-31T12:48:05;99567.13;;;26.53
51149;BMP280;37210;50.058;8.688;2023-07-31T12:50:32;99564.59;;;26.28
51149;BMP280;37210;50.058;8.688;2023-07-31T12:53:02;99567.56;;;26.47
51149;BMP280;37210;50.058;8.688;2023-07-31T12:55:30;99569.16;;;26.15
51149;BMP280;37210;50.058;8.688;2023-07-31T12:57:58;99555.00;;;26.13
51149;BMP280;37210;50.058;8.688;2023-07-31T13:00:26;99550.47;;;26.37
51149;BMP280;37210;50.058;8.688;2023-07-31T13:02:53;99520.94;;;26.26
51149;BMP280;37210;50.058;8.688;2023-07-31T13:05:23;99539.78;;;26.48
51149;BMP280;37210;50.058;8.688;2023-07-31T13:07:50;99527.63;;;26.66
51149;BMP280;37210;50.058;8.688;2023-07-31T13:10:18;99527.38;;;26.93
51149;BMP280;37210;50.058;8.688;2023-07-31T13:12:45;99508.94;;;26.88
51149;BMP280;37210;50.058;8.688;2023-07-31T13:15:14;99520.91;;;26.96
51149;BMP280;37210;50.058;8.688;2023-07-31T13:17:41;99531.16;;;26.90
51149;BMP280;37210;50.058;8.688;2023-07-31T13:20:09;99527.84;;;26.98
51149;BMP280;37210;50.058;8.688;2023-07-31T13:22:39;99544.66;;;26.78
51149;BMP280;37210;50.058;8.688;2023-07-31T13:25:07;99531.19;;;26.67
51149;BMP280;37210;50.058;8.688;2023-07-31T13:27:35;99536.03;;;26.62
51149;BMP280;37210;50.058;8.688;2023-07-31T13:30:03;99537.09;;;26.48
51149;BMP280;37210;50.058;8.688;2023-07-31T13:32:31;99526.66;;;26.56
51149;BMP280;37210;50.058;8.688;2023-07-31T13:34:59;99521.28;;;26.22
51149;BMP280;37210;50.058;8.688;2023-07-31T13:37:26;99522.84;;;26.48
51149;BMP280;37210;50.058;8.688;2023-07-31T13:39:55;99542.88;;;26.55
51149;BMP280;37210;50.058;8.688;2023-07-31T13:42:22;99540.19;;;26.20
51149;BMP280;37210;50.058;8.688;2023-07-31T13:44:49;99533.28;;;26.40
51149;BMP280;37210;50.058;8.688;2023-07-31T13:47:17;99537.19;;;26.12
51149;BMP280;37210;50.058;8.688;2023-07-31T13:49:44;99536.59;;;26.43
51149;BMP280;37210;50.058;8.688;2023-07-31T13:52:11;99542.00;;;26.54
51149;BMP280;37210;50.058;8.688;2023-07-31T13:54:39;99535.19;;;26.61
51149;BMP280;37210;50.058;8.688;2023-07-31T13:57:07;99536.22;;;26.37
51149;BMP280;37210;50.058;8.688;2023-07-31T13:59:35;99536.88;;;26.51
51149;BMP280;37210;50.058;8.688;2023-07-31T14:02:02;99523.69;;;26.48
51149;BMP280;37210;50.058;8.688;2023-07-31T14:04:30;99532.09;;;26.44
51149;BMP280;37210;50.058;8.688;2023-07-31T14:06:58;99529.34;;;26.33
51149;BMP280;37210;50.058;8.688;2023-07-31T14:09:26;99525.09;;;26.30
51149;BMP280;37210;50.058;8.688;2023-07-31T14:11:54;99523.50;;;26.28
51149;BMP280;37210;50.058;8.688;2023-07-31T14:14:23;99518.94;;;26.41
51149;BMP280;37210;50.058;8.688;2023-07-31T14:16:50;99517.97;;;26.18
51149;BMP280;37210;50.058;8.688;2023-07-31T14:19:17;99509.72;;;26.21